sensor_id;sensor_type;location;lat;lon;timestamp;temperature;humidity
31975;DHT22;18500;43.618;1.474;2023-02-18T07:48:42;3.70;1.00
31975;DHT22;18500;43.618;1.474;2023-02-18T07:51:09;3.70;1.00
31975;DHT22;18500;43.618;1.474;2023-02-18T07:53:35;3.60;1.00
31975;DHT22;18500;43.618;1.474;2023-02-18T07:56:02;3.60;1.00
31975;DHT22;18500;43.618;1.474;2023-02-18T07:58:31;3.60;1.00
31975;DHT22;18500;43.618;1.474;2023-02-18T08:00:57;3.60;1.00
31975;DHT22;18500;43.618;1.474;2023-02-18T08:03:27;3.60;1.00
31975;DHT22;18500;43.618;1.474;2023-02-18T08:05:53;3.70;1.00
31975;DHT22;18500;43.618;1.474;2023-02-18T08:08:22;3.70;1.00
31975;DHT22;18500;43.618;1.474;2023-02-18T08:10:49;3.80;1.00
31975;DHT22;18500;43.618;1.474;2023-02-18T08:13:15;3.90;1.00
31975;DHT22;18500;43.618;1.474;2023-02-18T08:15:41;3.90;1.00
31975;DHT22;18500;43.618;1.474;2023-02-18T08:18:10;4.00;1.00
31975;DHT22;18500;43.618;1.474;2023-02-18T08:20:38;4.10;1.00
31975;DHT22;18500;43.618;1.474;2023-02-18T08:23:05;4.10;1.00
31975;DHT22;18500;43.618;1.474;2023-02-18T08:25:31;4.20;1.00
31975;DHT22;18500;43.618;1.474;2023-02-18T08:27:57;4.30;1.00
31975;DHT22;18500;43.618;1.474;2023-02-18T08:30:23;4.40;1.00
31975;DHT22;18500;43.618;1.474;2023-02-18T08:32:49;4.50;1.00
31975;DHT22;18500;43.618;1.474;2023-02-18T08:35:15;4.60;1.00
31975;DHT22;18500;43.618;1.474;2023-02-18T08:37:40;4.70;1.00
31975;DHT22;18500;43.618;1.474;2023-02-18T08:40:07;4.90;1.00
31975;DHT22;18500;43.618;1.474;2023-02-18T08:42:32;5.00;1.00
31975;DHT22;18500;43.618;1.474;2023-02-18T08:44:58;5.10;1.00
31975;DHT22;18500;43.618;1.474;2023-02-18T08:47:24;5.20;1.00
31975;DHT22;18500;43.618;1.474;2023-02-18T08:49:52;5.30;1.00
31975;DHT22;18500;43.618;1.474;2023-02-18T08:52:18;5.50;1.00
31975;DHT22;18500;43.618;1.474;2023-02-18T08:54:44;5.70;1.00
31975;DHT22;18500;43.618;1.474;2023-02-18T08:57:10;5.80;1.00
31975;DHT22;18500;43.618;1.474;2023-02-18T08:59:35;6.00;1.00
31975;DHT22;18500;43.618;1.474;2023-02-18T09:02:01;6.10;1.00
31975;DHT22;18500;43.618;1.474;2023-02-18T09:04:27;6.20;1.00
31975;DHT22;18500;43.618;1.474;2023-02-18T09:06:52;6.30;1.00
31975;DHT22;18500;43.618;1.474;2023-02-18T09:09:18;6.50;1.00
31975;DHT22;18500;43.618;1.474;2023-02-18T09:11:44;6.60;1.00
31975;DHT22;18500;43.618;1.474;2023-02-18T09:14:10;6.70;1.00
31975;DHT22;18500;43.618;1.474;2023-02-18T09:16:38;6.80;1.00
31975;DHT22;18500;43.618;1.474;2023-02-18T09:19:04;6.90;1.00
31975;DHT22;18500;43.618;1.474;2023-02-18T09:21:30;7.00;1.00
31975;DHT22;18500;43.618;1.474;2023-02-18T09:23:57;7.10;1.00
31975;DHT22;18500;43.618;1.474;2023-02-18T09:26:23;7.20;1.00
31975;DHT22;18500;43.618;1.474;2023-02-18T09:28:52;7.20;1.00
31975;DHT22;18500;43.618;1.474;2023-02-18T09:31:20;7.30;1.00
31975;DHT22;18500;43.618;1.474;2023-02-18T09:33:52;7.50;1.00
31975;DHT22;18500;43.618;1.474;2023-02-18T09:36:18;7.50;1.00
31975;DHT22;18500;43.618;1.474;2023-02-18T09:38:45;7.70;1.00
31975;DHT22;18500;43.618;1.474;2023-02-18T09:41:31;7.80;1.00
31975;DHT22;18500;43.618;1.474;2023-02-18T09:44:02;7.90;1.00
31975;DHT22;18500;43.618;1.474;2023-02-18T09:46:35;8.00;1.00
31975;DHT22;18500;43.618;1.474;2023-02-18T09:49:05;8.10;1.00
31975;DHT22;18500;43.618;1.474;2023-02-18T09:51:32;8.10;1.00
31975;DHT22;18500;43.618;1.474;2023-02-18T09:53:58;8.20;1.00
31975;DHT22;18500;43.618;1.474;2023-02-18T09:56:32;8.30;1.00
31975;DHT22;18500;43.618;1.474;2023-02-18T09:59:04;8.40;1.00
31975;DHT22;18500;43.618;1.474;2023-02-18T10:01:40;8.60;1.00
31975;DHT22;18500;43.618;1.474;2023-02-18T10:06:58;8.90;1.00
31975;DHT22;18500;43.618;1.474;2023-02-18T10:09:37;9.20;1.00
31975;DHT22;18500;43.618;1.474;2023-02-18T10:12:18;9.30;1.00
31975;DHT22;18500;43.618;1.474;2023-02-18T10:14:52;9.40;1.00
31975;DHT22;18500;43.618;1.474;2023-02-18T10:17:20;9.40;1.00
31975;DHT22;18500;43.618;1.474;2023-02-18T10:19:49;9.40;1.00
31975;DHT22;18500;43.618;1.474;2023-02-18T10:22:16;9.50;1.00
31975;DHT22;18500;43.618;1.474;2023-02-18T10:30:40;9.80;1.00
31975;DHT22;18500;43.618;1.474;2023-02-18T10:32:42;9.60;1.00
31975;DHT22;18500;43.618;1.474;2023-02-18T10:40:53;9.80;1.00
31975;DHT22;18500;43.618;1.474;2023-02-18T10:51:28;9.90;1.00
31975;DHT22;18500;43.618;1.474;2023-02-18T10:53:55;10.00;1.00
31975;DHT22;18500;43.618;1.474;2023-02-18T10:56:36;10.40;1.00
31975;DHT22;18500;43.618;1.474;2023-02-18T10:59:52;10.80;1.00
31975;DHT22;18500;43.618;1.474;2023-02-18T11:02:09;11.00;1.00
31975;DHT22;18500;43.618;1.474;2023-02-18T11:04:40;11.10;1.00
31975;DHT22;18500;43.618;1.474;2023-02-18T11:07:22;11.00;1.00
31975;DHT22;18500;43.618;1.474;2023-02-18T11:09:51;11.10;1.00
31975;DHT22;18500;43.618;1.474;2023-02-18T11:12:28;11.30;1.00
31975;DHT22;18500;43.618;1.474;2023-02-18T11:17:39;11.90;1.00
31975;DHT22;18500;43.618;1.474;2023-02-18T11:20:32;12.10;1.00
31975;DHT22;18500;43.618;1.474;2023-02-18T11:25:33;12.20;1.00
31975;DHT22;18500;43.618;1.474;2023-02-18T11:28:02;12.30;1.00
31975;DHT22;18500;43.618;1.474;2023-02-18T11:30:41;12.40;1.00
31975;DHT22;18500;43.618;1.474;2023-02-18T11:33:17;12.60;1.00
31975;DHT22;18500;43.618;1.474;2023-02-18T11:35:55;12.70;1.00
31975;DHT22;18500;43.618;1.474;2023-02-18T11:38:45;12.80;1.00
31975;DHT22;18500;43.618;1.474;2023-02-18T11:41:19;13.00;1.00
31975;DHT22;18500;43.618;1.474;2023-02-18T11:43:48;13.10;1.00
31975;DHT22;18500;43.618;1.474;2023-02-18T11:46:20;13.20;1.00
31975;DHT22;18500;43.618;1.474;2023-02-18T11:48:46;13.20;1.00
31975;DHT22;18500;43.618;1.474;2023-02-18T11:51:18;13.20;1.00
31975;DHT22;18500;43.618;1.474;2023-02-18T11:54:04;13.30;1.00
31975;DHT22;18500;43.618;1.474;2023-02-18T11:56:34;13.40;1.00
31975;DHT22;18500;43.618;1.474;2023-02-18T11:59:02;13.50;1.00
31975;DHT22;18500;43.618;1.474;2023-02-18T12:04:16;13.60;1.00
31975;DHT22;18500;43.618;1.474;2023-02-18T12:09:42;13.80;1.00
31975;DHT22;18500;43.618;1.474;2023-02-18T12:12:19;13.80;1.00
31975;DHT22;18500;43.618;1.474;2023-02-18T12:14:48;13.90;1.00
31975;DHT22;18500;43.618;1.474;2023-02-18T12:20:44;13.80;1.00
31975;DHT22;18500;43.618;1.474;2023-02-18T12:34:31;14.40;1.00
31975;DHT22;18500;43.618;1.474;2023-02-18T12:49:04;19.10;1.00
31975;DHT22;18500;43.618;1.474;2023-02-18T12:51:43;22.70;1.00
31975;DHT22;18500;43.618;1.474;2023-02-18T12:54:35;25.30;1.00
31975;DHT22;18500;43.618;1.474;2023-02-18T12:57:07;26.40;1.00
31975;DHT22;18500;43.618;1.474;2023-02-18T13:06:12;29.20;1.00
31975;DHT22;18500;43.618;1.474;2023-02-18T13:13:33;28.40;1.00
31975;DHT22;18500;43.618;1.474;2023-02-18T13:16:15;29.10;1.00
31975;DHT22;18500;43.618;1.474;2023-02-18T13:18:53;27.70;1.00
31975;DHT22;18500;43.618;1.474;2023-02-18T13:21:23;24.70;1.00
31975;DHT22;18500;43.618;1.474;2023-02-18T13:26:18;20.70;1.00
31975;DHT22;18500;43.618;1.474;2023-02-18T13:29:07;19.10;1.00
31975;DHT22;18500;43.618;1.474;2023-02-18T13:34:51;17.70;1.00
31975;DHT22;18500;43.618;1.474;2023-02-18T13:40:21;17.30;1.00
31975;DHT22;18500;43.618;1.474;2023-02-18T13:42:52;17.50;1.00
31975;DHT22;18500;43.618;1.474;2023-02-18T13:45:28;17.60;1.00
31975;DHT22;18500;43.618;1.474;2023-02-18T13:47:54;17.60;1.00
31975;DHT22;18500;43.618;1.474;2023-02-18T13:50:29;17.20;1.00
31975;DHT22;18500;43.618;1.474;2023-02-18T13:55:52;17.00;1.00
31975;DHT22;18500;43.618;1.474;2023-02-18T13:58:29;17.00;1.00
31975;DHT22;18500;43.618;1.474;2023-02-18T14:01:05;17.00;1.00
31975;DHT22;18500;43.618;1.474;2023-02-18T14:06:18;16.90;1.00
31975;DHT22;18500;43.618;1.474;2023-02-18T14:08:44;17.00;1.00
31975;DHT22;18500;43.618;1.474;2023-02-18T14:13:48;17.10;1.00
31975;DHT22;18500;43.618;1.474;2023-02-18T14:16:15;17.00;1.00
31975;DHT22;18500;43.618;1.474;2023-02-18T14:33:48;17.80;1.00
31975;DHT22;18500;43.618;1.474;2023-02-18T14:50:22;17.40;1.00
31975;DHT22;18500;43.618;1.474;2023-02-18T14:52:56;17.40;1.00
31975;DHT22;18500;43.618;1.474;2023-02-18T14:55:26;17.40;1.00
31975;DHT22;18500;43.618;1.474;2023-02-18T14:58:05;17.40;1.00
31975;DHT22;18500;43.618;1.474;2023-02-18T15:00:35;17.50;1.00
31975;DHT22;18500;43.618;1.474;2023-02-18T15:03:08;17.50;1.00
31975;DHT22;18500;43.618;1.474;2023-02-18T15:05:37;17.70;1.00
31975;DHT22;18500;43.618;1.474;2023-02-18T15:08:05;17.60;1.00
31975;DHT22;18500;43.618;1.474;2023-02-18T15:15:56;17.50;1.00
31975;DHT22;18500;43.618;1.474;2023-02-18T15:18:35;17.50;1.00
31975;DHT22;18500;43.618;1.474;2023-02-18T15:21:02;17.50;1.00
31975;DHT22;18500;43.618;1.474;2023-02-18T15:23:29;17.40;1.00
31975;DHT22;18500;43.618;1.474;2023-02-18T15:25:56;17.50;1.00
31975;DHT22;18500;43.618;1.474;2023-02-18T15:28:27;17.60;1.00
31975;DHT22;18500;43.618;1.474;2023-02-18T15:30:56;17.40;1.00
31975;DHT22;18500;43.618;1.474;2023-02-18T15:33:22;17.60;1.00
31975;DHT22;18500;43.618;1.474;2023-02-18T15:35:47;17.50;1.00
31975;DHT22;18500;43.618;1.474;2023-02-18T15:38:15;17.50;1.00
31975;DHT22;18500;43.618;1.474;2023-02-18T15:40:43;17.50;1.00
31975;DHT22;18500;43.618;1.474;2023-02-18T15:43:15;17.60;1.00
31975;DHT22;18500;43.618;1.474;2023-02-18T15:45:44;17.60;1.00
31975;DHT22;18500;43.618;1.474;2023-02-18T15:48:46;17.50;1.00
31975;DHT22;18500;43.618;1.474;2023-02-18T15:51:21;17.50;1.00
31975;DHT22;18500;43.618;1.474;2023-02-18T15:53:52;17.70;1.00
31975;DHT22;18500;43.618;1.474;2023-02-18T15:56:38;17.70;1.00
31975;DHT22;18500;43.618;1.474;2023-02-18T15:59:18;17.90;1.00
31975;DHT22;18500;43.618;1.474;2023-02-18T16:01:56;18.60;1.00
31975;DHT22;18500;43.618;1.474;2023-02-18T16:04:24;18.10;1.00
31975;DHT22;18500;43.618;1.474;2023-02-18T16:06:53;19.80;1.00
31975;DHT22;18500;43.618;1.474;2023-02-18T16:09:31;21.00;1.00
31975;DHT22;18500;43.618;1.474;2023-02-18T16:12:02;19.80;1.00
31975;DHT22;18500;43.618;1.474;2023-02-18T16:14:38;19.60;1.00
31975;DHT22;18500;43.618;1.474;2023-02-18T16:17:15;19.60;1.00
31975;DHT22;18500;43.618;1.474;2023-02-18T16:20:01;18.90;1.00
31975;DHT22;18500;43.618;1.474;2023-02-18T16:25:23;17.90;1.00
31975;DHT22;18500;43.618;1.474;2023-02-18T16:30:25;17.40;1.00
31975;DHT22;18500;43.618;1.474;2023-02-18T16:32:51;17.20;1.00
31975;DHT22;18500;43.618;1.474;2023-02-18T16:35:17;17.10;1.00
31975;DHT22;18500;43.618;1.474;2023-02-18T16:37:43;16.90;1.00
31975;DHT22;18500;43.618;1.474;2023-02-18T16:40:27;16.90;1.00
31975;DHT22;18500;43.618;1.474;2023-02-18T16:42:55;16.80;1.00
31975;DHT22;18500;43.618;1.474;2023-02-18T16:45:25;16.70;1.00
31975;DHT22;18500;43.618;1.474;2023-02-18T16:47:55;16.60;1.00
31975;DHT22;18500;43.618;1.474;2023-02-18T16:50:21;16.70;1.00
31975;DHT22;18500;43.618;1.474;2023-02-18T16:52:48;16.60;1.00
31975;DHT22;18500;43.618;1.474;2023-02-18T16:55:22;16.50;1.00
31975;DHT22;18500;43.618;1.474;2023-02-18T16:57:48;16.50;1.00
31975;DHT22;18500;43.618;1.474;2023-02-18T17:00:16;16.40;1.00
31975;DHT22;18500;43.618;1.474;2023-02-18T17:02:47;16.10;1.00
31975;DHT22;18500;43.618;1.474;2023-02-18T17:05:28;16.00;1.00
31975;DHT22;18500;43.618;1.474;2023-02-18T17:07:56;15.70;1.00
31975;DHT22;18500;43.618;1.474;2023-02-18T17:10:24;15.40;1.00
31975;DHT22;18500;43.618;1.474;2023-02-18T17:12:49;15.10;1.00
31975;DHT22;18500;43.618;1.474;2023-02-18T17:15:33;14.80;1.00
31975;DHT22;18500;43.618;1.474;2023-02-18T17:18:00;14.60;1.00
31975;DHT22;18500;43.618;1.474;2023-02-18T17:20:27;14.40;1.00
31975;DHT22;18500;43.618;1.474;2023-02-18T17:22:53;14.30;1.00
31975;DHT22;18500;43.618;1.474;2023-02-18T17:25:31;14.40;1.00
31975;DHT22;18500;43.618;1.474;2023-02-18T17:27:57;14.40;1.00
31975;DHT22;18500;43.618;1.474;2023-02-18T17:30:23;14.30;1.00
31975;DHT22;18500;43.618;1.474;2023-02-18T17:32:49;14.20;1.00
31975;DHT22;18500;43.618;1.474;2023-02-18T17:35:17;14.00;1.00
31975;DHT22;18500;43.618;1.474;2023-02-18T17:37:44;13.80;1.00
31975;DHT22;18500;43.618;1.474;2023-02-18T17:40:18;13.70;1.00
31975;DHT22;18500;43.618;1.474;2023-02-18T17:42:45;13.60;1.00
31975;DHT22;18500;43.618;1.474;2023-02-18T17:45:27;13.50;1.00
31975;DHT22;18500;43.618;1.474;2023-02-18T17:47:57;13.40;1.00
31975;DHT22;18500;43.618;1.474;2023-02-18T17:50:24;13.20;1.00
31975;DHT22;18500;43.618;1.474;2023-02-18T17:52:50;13.30;1.00
31975;DHT22;18500;43.618;1.474;2023-02-18T17:57:45;13.10;1.00
31975;DHT22;18500;43.618;1.474;2023-02-18T18:00:13;13.00;1.00
31975;DHT22;18500;43.618;1.474;2023-02-18T18:02:39;12.80;1.00
31975;DHT22;18500;43.618;1.474;2023-02-18T18:05:08;12.80;1.00
31975;DHT22;18500;43.618;1.474;2023-02-18T18:07:37;12.70;1.00
31975;DHT22;18500;43.618;1.474;2023-02-18T18:10:03;12.60;1.00
31975;DHT22;18500;43.618;1.474;2023-02-18T18:12:29;12.90;1.00
31975;DHT22;18500;43.618;1.474;2023-02-18T18:14:55;12.90;1.00
31975;DHT22;18500;43.618;1.474;2023-02-18T18:17:20;12.80;1.00
31975;DHT22;18500;43.618;1.474;2023-02-18T18:19:46;12.80;1.00
31975;DHT22;18500;43.618;1.474;2023-02-18T18:22:12;12.80;1.00
31975;DHT22;18500;43.618;1.474;2023-02-18T18:24:37;12.60;1.00
31975;DHT22;18500;43.618;1.474;2023-02-18T18:27:03;12.60;1.00
31975;DHT22;18500;43.618;1.474;2023-02-18T18:29:29;12.20;1.00
31975;DHT22;18500;43.618;1.474;2023-02-18T18:31:54;11.80;1.00
31975;DHT22;18500;43.618;1.474;2023-02-18T18:34:21;11.50;1.00
31975;DHT22;18500;43.618;1.474;2023-02-18T18:36:46;11.40;1.00
31975;DHT22;18500;43.618;1.474;2023-02-18T18:39:12;11.10;1.00
31975;DHT22;18500;43.618;1.474;2023-02-18T18:41:38;11.00;1.00
31975;DHT22;18500;43.618;1.474;2023-02-18T18:44:04;10.80;1.00
31975;DHT22;18500;43.618;1.474;2023-02-18T18:46:29;10.70;1.00
31975;DHT22;18500;43.618;1.474;2023-02-18T18:48:55;10.60;1.00
31975;DHT22;18500;43.618;1.474;2023-02-18T18:51:27;10.50;1.00
31975;DHT22;18500;43.618;1.474;2023-02-18T18:53:53;10.50;1.00
31975;DHT22;18500;43.618;1.474;2023-02-18T18:56:19;10.40;1.00
31975;DHT22;18500;43.618;1.474;2023-02-18T18:58:44;10.30;1.00
31975;DHT22;18500;43.618;1.474;2023-02-18T19:01:19;10.30;1.00
31975;DHT22;18500;43.618;1.474;2023-02-18T19:03:47;10.20;1.00
31975;DHT22;18500;43.618;1.474;2023-02-18T19:06:15;10.10;1.00
31975;DHT22;18500;43.618;1.474;2023-02-18T19:08:41;10.10;1.00
31975;DHT22;18500;43.618;1.474;2023-02-18T19:11:07;10.00;1.00
31975;DHT22;18500;43.618;1.474;2023-02-18T19:13:35;10.00;1.00
31975;DHT22;18500;43.618;1.474;2023-02-18T19:16:25;10.00;1.00
31975;DHT22;18500;43.618;1.474;2023-02-18T19:18:52;10.00;1.00
31975;DHT22;18500;43.618;1.474;2023-02-18T19:21:18;10.10;1.00
31975;DHT22;18500;43.618;1.474;2023-02-18T19:23:44;10.10;1.00
31975;DHT22;18500;43.618;1.474;2023-02-18T19:26:10;10.10;1.00
31975;DHT22;18500;43.618;1.474;2023-02-18T19:28:36;10.00;1.00
31975;DHT22;18500;43.618;1.474;2023-02-18T19:31:07;10.00;1.00
31975;DHT22;18500;43.618;1.474;2023-02-18T19:33:33;9.90;1.00
31975;DHT22;18500;43.618;1.474;2023-02-18T19:35:59;9.80;1.00
31975;DHT22;18500;43.618;1.474;2023-02-18T19:38:24;9.70;1.00
31975;DHT22;18500;43.618;1.474;2023-02-18T19:40:50;9.70;1.00
31975;DHT22;18500;43.618;1.474;2023-02-18T19:43:18;9.60;1.00
31975;DHT22;18500;43.618;1.474;2023-02-18T19:45:45;9.60;1.00
31975;DHT22;18500;43.618;1.474;2023-02-18T19:48:12;9.50;1.00
31975;DHT22;18500;43.618;1.474;2023-02-18T19:50:39;9.40;1.00
31975;DHT22;18500;43.618;1.474;2023-02-18T19:53:06;9.40;1.00
31975;DHT22;18500;43.618;1.474;2023-02-18T19:55:31;9.40;1.00
31975;DHT22;18500;43.618;1.474;2023-02-18T19:57:57;9.50;1.00
31975;DHT22;18500;43.618;1.474;2023-02-18T20:00:23;9.50;1.00
31975;DHT22;18500;43.618;1.474;2023-02-18T20:02:49;9.50;1.00
31975;DHT22;18500;43.618;1.474;2023-02-18T20:05:15;9.50;1.00
31975;DHT22;18500;43.618;1.474;2023-02-18T20:07:41;9.50;1.00
31975;DHT22;18500;43.618;1.474;2023-02-18T20:10:09;9.50;1.00
31975;DHT22;18500;43.618;1.474;2023-02-18T20:12:36;9.40;1.00
31975;DHT22;18500;43.618;1.474;2023-02-18T20:15:02;9.30;1.00
31975;DHT22;18500;43.618;1.474;2023-02-18T20:17:28;9.30;1.00
31975;DHT22;18500;43.618;1.474;2023-02-18T20:19:54;9.30;1.00
31975;DHT22;18500;43.618;1.474;2023-02-18T20:22:19;9.30;1.00
31975;DHT22;18500;43.618;1.474;2023-02-18T20:24:45;9.20;1.00
31975;DHT22;18500;43.618;1.474;2023-02-18T20:27:12;9.20;1.00
31975;DHT22;18500;43.618;1.474;2023-02-18T20:29:38;9.20;1.00
31975;DHT22;18500;43.618;1.474;2023-02-18T20:32:04;9.10;1.00
31975;DHT22;18500;43.618;1.474;2023-02-18T20:34:31;9.10;1.00
31975;DHT22;18500;43.618;1.474;2023-02-18T20:36:57;8.90;1.00
31975;DHT22;18500;43.618;1.474;2023-02-18T20:39:23;8.90;1.00
31975;DHT22;18500;43.618;1.474;2023-02-18T20:41:49;8.70;1.00
31975;DHT22;18500;43.618;1.474;2023-02-18T20:44:16;8.70;1.00
31975;DHT22;18500;43.618;1.474;2023-02-18T20:46:43;8.70;1.00
31975;DHT22;18500;43.618;1.474;2023-02-18T20:49:14;8.60;1.00
31975;DHT22;18500;43.618;1.474;2023-02-18T20:51:41;8.50;1.00
31975;DHT22;18500;43.618;1.474;2023-02-18T20:54:09;8.60;1.00
31975;DHT22;18500;43.618;1.474;2023-02-18T20:56:36;8.60;1.00
31975;DHT22;18500;43.618;1.474;2023-02-18T20:59:02;8.60;1.00
31975;DHT22;18500;43.618;1.474;2023-02-18T21:01:28;8.60;1.00
31975;DHT22;18500;43.618;1.474;2023-02-18T21:03:54;8.60;1.00
31975;DHT22;18500;43.618;1.474;2023-02-18T21:06:21;8.60;1.00
31975;DHT22;18500;43.618;1.474;2023-02-18T21:08:50;8.50;1.00
31975;DHT22;18500;43.618;1.474;2023-02-18T21:11:22;8.50;1.00
31975;DHT22;18500;43.618;1.474;2023-02-18T21:13:50;8.50;1.00
31975;DHT22;18500;43.618;1.474;2023-02-18T21:16:17;8.50;1.00
31975;DHT22;18500;43.618;1.474;2023-02-18T21:18:43;8.50;1.00
31975;DHT22;18500;43.618;1.474;2023-02-18T21:21:09;8.50;1.00
31975;DHT22;18500;43.618;1.474;2023-02-18T21:23:35;8.50;1.00
31975;DHT22;18500;43.618;1.474;2023-02-18T21:26:03;8.40;1.00
31975;DHT22;18500;43.618;1.474;2023-02-18T21:28:29;8.40;1.00
31975;DHT22;18500;43.618;1.474;2023-02-18T21:30:55;8.30;1.00
31975;DHT22;18500;43.618;1.474;2023-02-18T21:33:21;8.30;1.00
31975;DHT22;18500;43.618;1.474;2023-02-18T21:35:47;8.30;1.00
31975;DHT22;18500;43.618;1.474;2023-02-18T21:38:19;8.30;1.00
31975;DHT22;18500;43.618;1.474;2023-02-18T21:40:46;8.20;1.00
31975;DHT22;18500;43.618;1.474;2023-02-18T21:43:11;8.10;1.00
31975;DHT22;18500;43.618;1.474;2023-02-18T21:45:37;7.90;1.00
31975;DHT22;18500;43.618;1.474;2023-02-18T21:48:03;7.80;1.00
31975;DHT22;18500;43.618;1.474;2023-02-18T21:50:48;7.70;1.00
31975;DHT22;18500;43.618;1.474;2023-02-18T21:53:14;7.60;1.00
31975;DHT22;18500;43.618;1.474;2023-02-18T21:55:40;7.50;1.00
31975;DHT22;18500;43.618;1.474;2023-02-18T21:58:06;7.50;1.00
31975;DHT22;18500;43.618;1.474;2023-02-18T22:00:32;7.40;1.00
31975;DHT22;18500;43.618;1.474;2023-02-18T22:02:58;7.40;1.00
31975;DHT22;18500;43.618;1.474;2023-02-18T22:05:24;7.30;1.00
31975;DHT22;18500;43.618;1.474;2023-02-18T22:07:51;7.30;1.00
31975;DHT22;18500;43.618;1.474;2023-02-18T22:10:17;7.20;1.00
31975;DHT22;18500;43.618;1.474;2023-02-18T22:12:45;7.20;1.00
31975;DHT22;18500;43.618;1.474;2023-02-18T22:15:11;7.20;1.00
31975;DHT22;18500;43.618;1.474;2023-02-18T22:17:37;7.10;1.00
31975;DHT22;18500;43.618;1.474;2023-02-18T22:20:03;7.10;1.00
31975;DHT22;18500;43.618;1.474;2023-02-18T22:22:33;7.10;1.00
31975;DHT22;18500;43.618;1.474;2023-02-18T22:24:58;7.10;1.00
31975;DHT22;18500;43.618;1.474;2023-02-18T22:27:24;7.10;1.00
31975;DHT22;18500;43.618;1.474;2023-02-18T22:29:52;7.10;1.00
31975;DHT22;18500;43.618;1.474;2023-02-18T22:32:18;7.20;1.00
31975;DHT22;18500;43.618;1.474;2023-02-18T22:34:43;7.20;1.00
31975;DHT22;18500;43.618;1.474;2023-02-18T22:37:09;7.20;1.00
31975;DHT22;18500;43.618;1.474;2023-02-18T22:39:35;7.30;1.00
31975;DHT22;18500;43.618;1.474;2023-02-18T22:42:00;7.30;1.00
31975;DHT22;18500;43.618;1.474;2023-02-18T22:44:26;7.30;1.00
31975;DHT22;18500;43.618;1.474;2023-02-18T22:46:54;7.20;1.00
31975;DHT22;18500;43.618;1.474;2023-02-18T22:49:20;7.20;1.00
31975;DHT22;18500;43.618;1.474;2023-02-18T22:51:50;7.10;1.00
31975;DHT22;18500;43.618;1.474;2023-02-18T22:54:16;7.10;1.00
31975;DHT22;18500;43.618;1.474;2023-02-18T22:56:43;7.10;1.00
31975;DHT22;18500;43.618;1.474;2023-02-18T22:59:11;7.10;1.00
31975;DHT22;18500;43.618;1.474;2023-02-18T23:01:42;7.10;1.00
31975;DHT22;18500;43.618;1.474;2023-02-18T23:04:10;7.00;1.00
31975;DHT22;18500;43.618;1.474;2023-02-18T23:06:37;7.00;1.00
31975;DHT22;18500;43.618;1.474;2023-02-18T23:09:04;7.00;1.00
31975;DHT22;18500;43.618;1.474;2023-02-18T23:11:30;7.00;1.00
31975;DHT22;18500;43.618;1.474;2023-02-18T23:13:56;7.00;1.00
31975;DHT22;18500;43.618;1.474;2023-02-18T23:16:41;7.00;1.00
31975;DHT22;18500;43.618;1.474;2023-02-18T23:19:26;6.90;1.00
31975;DHT22;18500;43.618;1.474;2023-02-18T23:21:52;6.90;1.00
31975;DHT22;18500;43.618;1.474;2023-02-18T23:24:18;6.90;1.00
31975;DHT22;18500;43.618;1.474;2023-02-18T23:26:44;6.80;1.00
31975;DHT22;18500;43.618;1.474;2023-02-18T23:29:10;6.90;1.00
31975;DHT22;18500;43.618;1.474;2023-02-18T23:31:36;6.80;1.00
31975;DHT22;18500;43.618;1.474;2023-02-18T23:34:03;6.80;1.00
31975;DHT22;18500;43.618;1.474;2023-02-18T23:36:31;6.80;1.00
31975;DHT22;18500;43.618;1.474;2023-02-18T23:39:04;6.70;1.00
31975;DHT22;18500;43.618;1.474;2023-02-18T23:41:32;6.80;1.00
31975;DHT22;18500;43.618;1.474;2023-02-18T23:44:01;6.70;1.00
31975;DHT22;18500;43.618;1.474;2023-02-18T23:46:26;6.60;1.00
31975;DHT22;18500;43.618;1.474;2023-02-18T23:48:52;6.60;1.00
31975;DHT22;18500;43.618;1.474;2023-02-18T23:51:19;6.60;1.00
31975;DHT22;18500;43.618;1.474;2023-02-18T23:53:45;6.60;1.00
31975;DHT22;18500;43.618;1.474;2023-02-18T23:56:17;6.60;1.00
31975;DHT22;18500;43.618;1.474;2023-02-18T23:58:45;6.60;1.00
